createdAt,value
2022-11-16T00:01:50.874Z,63.20
2022-11-16T00:04:30.832Z,63.40
2022-11-16T00:07:17.803Z,63.20
2022-11-16T00:10:04.795Z,63.30
2022-11-16T00:12:51.758Z,63.40
2022-11-16T00:15:38.788Z,63.40
2022-11-16T00:18:18.898Z,63.40
2022-11-16T00:21:05.757Z,63.50
2022-11-16T00:23:52.786Z,63.40
2022-11-16T00:26:40.776Z,63.50
2022-11-16T00:29:29.782Z,63.50
2022-11-16T00:32:10.569Z,63.80
2022-11-16T00:34:56.868Z,63.90
2022-11-16T00:37:43.774Z,64.00
2022-11-16T00:40:24.540Z,63.80
2022-11-16T00:43:10.775Z,63.80
2022-11-16T00:45:57.771Z,63.90
2022-11-16T00:48:38.869Z,63.80
2022-11-16T00:51:25.784Z,63.90
2022-11-16T00:54:05.898Z,64.10
2022-11-16T00:56:52.792Z,63.80
2022-11-16T00:59:32.815Z,64.90
2022-11-16T01:02:19.773Z,64.10
2022-11-16T01:04:59.821Z,64.20
2022-11-16T01:07:47.781Z,64.10
2022-11-16T01:10:36.777Z,64.20
2022-11-16T01:13:23.836Z,64.30
2022-11-16T01:16:03.767Z,64.30
2022-11-16T01:18:54.761Z,64.30
2022-11-16T01:21:41.780Z,64.40
2022-11-16T01:24:28.771Z,64.30
2022-11-16T01:27:08.844Z,64.20
2022-11-16T01:29:57.772Z,64.20
2022-11-16T01:32:45.764Z,64.40
2022-11-16T01:35:32.840Z,64.50
2022-11-16T01:38:12.773Z,64.50
2022-11-16T01:40:59.770Z,64.30
2022-11-16T01:43:58.819Z,64.50
2022-11-16T01:46:53.787Z,64.30
2022-11-16T01:49:36.829Z,64.40
2022-11-16T01:52:27.808Z,64.50
2022-11-16T01:55:08.853Z,64.50
2022-11-16T01:58:06.774Z,64.60
2022-11-16T02:00:49.091Z,64.60
2022-11-16T02:03:43.780Z,64.70
2022-11-16T02:06:27.268Z,64.70
2022-11-16T02:10:01.776Z,64.70
2022-11-16T02:13:00.875Z,64.70
2022-11-16T02:16:01.779Z,64.70
2022-11-16T02:18:45.103Z,64.60
2022-11-16T02:21:49.788Z,64.60
2022-11-16T02:24:49.816Z,64.70
2022-11-16T02:27:58.776Z,64.70
2022-11-16T02:30:45.717Z,64.70
2022-11-16T02:33:38.793Z,64.60
2022-11-16T02:36:22.524Z,64.50
2022-11-16T02:39:14.798Z,64.60
2022-11-16T02:42:12.785Z,64.50
2022-11-16T02:45:01.828Z,64.70
2022-11-16T02:47:43.849Z,64.60
2022-11-16T02:50:32.785Z,64.90
2022-11-16T02:53:19.797Z,64.60
2022-11-16T02:56:09.777Z,64.50
2022-11-16T02:58:49.847Z,64.50
2022-11-16T03:01:45.781Z,64.30
2022-11-16T03:04:32.848Z,64.40
2022-11-16T03:07:23.846Z,64.40
2022-11-16T03:10:05.845Z,64.50
2022-11-16T03:12:52.781Z,64.70
2022-11-16T03:15:32.816Z,64.90
2022-11-16T03:18:21.825Z,64.70
2022-11-16T03:21:22.784Z,64.70
2022-11-16T03:24:04.384Z,64.80
2022-11-16T03:27:14.786Z,64.90
2022-11-16T03:30:10.792Z,65.00
2022-11-16T03:33:07.775Z,65.00
2022-11-16T03:35:55.709Z,65.00
2022-11-16T03:38:47.788Z,64.90
2022-11-16T03:41:43.775Z,65.00
2022-11-16T03:44:33.803Z,64.90
2022-11-16T03:47:21.778Z,64.70
2022-11-16T03:50:08.801Z,64.70
2022-11-16T03:52:56.783Z,64.60
2022-11-16T03:55:37.520Z,64.60
2022-11-16T03:58:24.811Z,64.60
2022-11-16T04:01:05.909Z,64.60
2022-11-16T04:03:53.786Z,64.60
2022-11-16T04:07:06.855Z,64.50
2022-11-16T04:10:12.716Z,64.50
2022-11-16T04:13:12.798Z,64.40
2022-11-16T04:16:18.674Z,64.40
2022-11-16T04:19:16.795Z,64.40
2022-11-16T04:22:27.728Z,64.40
2022-11-16T04:25:20.784Z,64.30
2022-11-16T04:28:20.796Z,64.30
2022-11-16T04:31:25.703Z,64.30
2022-11-16T04:34:37.875Z,64.30
2022-11-16T04:37:41.689Z,64.20
2022-11-16T04:40:35.792Z,64.20
2022-11-16T04:43:31.808Z,64.00
2022-11-16T04:46:36.779Z,64.00
2022-11-16T04:49:23.807Z,63.90
2022-11-16T04:52:05.355Z,64.00
2022-11-16T04:54:52.813Z,63.90
2022-11-16T04:57:40.787Z,63.80
2022-11-16T05:00:28.777Z,63.80
2022-11-16T05:03:09.252Z,63.80
2022-11-16T05:05:55.791Z,63.70
2022-11-16T05:08:36.318Z,63.70
2022-11-16T05:11:23.783Z,63.60
2022-11-16T05:14:11.828Z,63.50
2022-11-16T05:16:51.787Z,63.50
2022-11-16T05:19:57.797Z,63.40
2022-11-16T05:22:42.848Z,63.20
2022-11-16T05:25:35.265Z,63.10
2022-11-16T05:28:24.813Z,63.20
2022-11-16T05:31:05.382Z,63.10
2022-11-16T05:33:51.821Z,63.10
2022-11-16T05:36:38.808Z,63.00
2022-11-16T05:39:19.895Z,63.00
2022-11-16T05:42:06.796Z,62.80
2022-11-16T05:44:47.878Z,62.80
2022-11-16T05:47:34.859Z,62.70
2022-11-16T05:50:15.908Z,62.70
2022-11-16T05:53:14.786Z,62.60
2022-11-16T05:55:54.972Z,62.70
2022-11-16T05:58:42.785Z,62.70
2022-11-16T06:01:29.807Z,63.00
2022-11-16T06:07:16.902Z,62.90
2022-11-16T06:10:03.800Z,62.80
2022-11-16T06:12:44.827Z,62.80
2022-11-16T06:15:31.795Z,62.80
2022-11-16T06:18:13.834Z,62.80
2022-11-16T06:21:03.809Z,62.70
2022-11-16T06:23:43.853Z,62.50
2022-11-16T06:26:30.799Z,62.60
2022-11-16T06:29:11.854Z,62.50
2022-11-16T06:32:06.784Z,62.50
2022-11-16T06:34:46.876Z,62.50
2022-11-16T06:37:33.823Z,62.50
2022-11-16T06:40:14.896Z,62.50
2022-11-16T06:43:03.786Z,62.50
2022-11-16T06:45:51.807Z,62.50
2022-11-16T06:48:45.806Z,62.60
2022-11-16T06:51:32.840Z,62.50
2022-11-16T06:54:14.807Z,62.50
2022-11-16T06:56:56.324Z,62.50
2022-11-16T06:59:42.820Z,62.30
2022-11-16T07:02:23.200Z,62.30
2022-11-16T07:05:10.809Z,62.30
2022-11-16T07:07:55.891Z,62.10
2022-11-16T07:10:42.813Z,62.00
2022-11-16T07:13:24.280Z,62.00
2022-11-16T07:16:17.806Z,62.00
2022-11-16T07:19:10.028Z,62.00
2022-11-16T07:21:49.795Z,62.00
2022-11-16T07:24:36.803Z,62.00
2022-11-16T07:27:16.869Z,61.80
2022-11-16T07:30:04.796Z,61.70
2022-11-16T07:33:16.795Z,61.50
2022-11-16T07:36:41.791Z,61.30
2022-11-16T07:39:30.807Z,61.20
2022-11-16T07:42:19.912Z,61.10
2022-11-16T07:45:26.805Z,61.10
2022-11-16T07:48:12.271Z,61.10
2022-11-16T07:51:19.821Z,61.10
2022-11-16T07:54:16.526Z,61.00
2022-11-16T07:56:56.004Z,60.90
2022-11-16T07:59:36.859Z,60.90
2022-11-16T08:02:24.798Z,60.80
2022-11-16T08:05:05.891Z,60.60
2022-11-16T08:07:52.804Z,60.70
2022-11-16T08:10:39.994Z,60.90
2022-11-16T08:13:26.804Z,60.90
2022-11-16T08:16:09.380Z,60.70
2022-11-16T08:18:57.798Z,60.50
2022-11-16T08:21:38.041Z,60.50
2022-11-16T08:24:26.818Z,60.40
2022-11-16T08:27:06.860Z,61.30
2022-11-16T08:29:53.825Z,60.40
2022-11-16T08:32:33.851Z,60.40
2022-11-16T08:35:20.797Z,60.20
2022-11-16T08:38:07.819Z,60.10
2022-11-16T08:40:54.876Z,60.00
2022-11-16T08:43:42.994Z,59.40
2022-11-16T08:46:32.801Z,58.90
2022-11-16T08:49:35.820Z,58.60
2022-11-16T08:52:16.930Z,58.10
2022-11-16T08:55:04.803Z,57.80
2022-11-16T08:57:44.883Z,57.40
2022-11-16T09:00:32.001Z,57.40
2022-11-16T09:03:11.890Z,57.80
2022-11-16T09:05:58.812Z,56.30
2022-11-16T09:08:38.875Z,55.90
2022-11-16T09:11:28.834Z,55.70
2022-11-16T09:14:08.864Z,55.20
2022-11-16T09:16:55.825Z,55.00
2022-11-16T09:19:35.888Z,55.00
2022-11-16T09:22:22.824Z,55.50
2022-11-16T09:25:09.836Z,55.20
2022-11-16T09:27:56.905Z,55.30
2022-11-16T09:30:37.812Z,54.90
2022-11-16T09:33:18.760Z,54.90
2022-11-16T09:36:05.824Z,54.50
2022-11-16T09:39:19.142Z,54.30
2022-11-16T09:42:23.813Z,54.30
2022-11-16T09:45:14.723Z,54.20
2022-11-16T09:48:09.845Z,54.00
2022-11-16T09:50:54.075Z,53.90
2022-11-16T09:53:43.805Z,53.90
2022-11-16T09:56:32.805Z,54.00
2022-11-16T09:59:22.822Z,53.90
2022-11-16T10:02:21.829Z,53.60
2022-11-16T10:05:10.859Z,53.60
2022-11-16T10:08:04.845Z,53.10
2022-11-16T10:10:49.869Z,52.60
2022-11-16T10:14:06.836Z,52.00
2022-11-16T10:16:57.861Z,51.80
2022-11-16T10:20:12.811Z,51.20
2022-11-16T10:22:58.880Z,51.00
2022-11-16T10:25:56.822Z,50.60
2022-11-16T10:29:13.874Z,50.20
2022-11-16T10:32:08.816Z,49.90
2022-11-16T10:34:57.893Z,50.90
2022-11-16T10:37:56.052Z,50.10
2022-11-16T10:40:45.882Z,51.30
2022-11-16T10:43:37.108Z,50.40
2022-11-16T10:46:41.873Z,50.60
2022-11-16T10:49:38.832Z,50.60
2022-11-16T10:52:25.833Z,50.70
2022-11-16T10:55:12.842Z,50.80
2022-11-16T10:58:14.815Z,50.80
2022-11-16T11:00:55.371Z,50.60
2022-11-16T11:03:45.820Z,50.50
2022-11-16T11:06:26.913Z,50.50
2022-11-16T11:09:28.858Z,50.40
2022-11-16T11:12:36.857Z,50.50
2022-11-16T11:15:39.836Z,50.30
2022-11-16T11:18:29.828Z,50.20
2022-11-16T11:21:26.883Z,50.20
2022-11-16T11:24:53.522Z,50.20
2022-11-16T11:27:38.877Z,50.30
2022-11-16T11:30:27.813Z,50.30
2022-11-16T11:33:07.890Z,51.20
2022-11-16T11:36:13.848Z,50.30
2022-11-16T11:39:39.856Z,50.40
2022-11-16T11:42:36.831Z,49.70
2022-11-16T11:45:25.841Z,49.60
2022-11-16T11:48:08.914Z,49.30
2022-11-16T11:51:07.809Z,49.70
2022-11-16T11:53:53.890Z,49.20
2022-11-16T11:56:41.840Z,49.00
2022-11-16T11:59:36.827Z,48.90
2022-11-16T12:02:50.921Z,49.10
2022-11-16T12:05:33.836Z,49.60
2022-11-16T12:08:27.347Z,49.50
2022-11-16T12:11:22.889Z,49.60
2022-11-16T12:14:09.597Z,49.50
2022-11-16T12:17:08.881Z,48.90
2022-11-16T12:20:10.884Z,48.60
2022-11-16T12:23:04.258Z,48.60
2022-11-16T12:25:59.892Z,48.40
2022-11-16T12:28:54.838Z,48.60
2022-11-16T12:31:46.692Z,48.50
2022-11-16T12:35:04.837Z,48.40
2022-11-16T12:38:26.230Z,48.40
2022-11-16T12:41:52.836Z,48.40
2022-11-16T12:45:18.833Z,48.40
2022-11-16T12:48:20.910Z,48.40
2022-11-16T12:51:49.883Z,48.60
2022-11-16T12:55:25.309Z,48.90
2022-11-16T12:58:11.836Z,48.80
2022-11-16T13:01:18.895Z,48.90
2022-11-16T13:04:13.853Z,48.90
2022-11-16T13:07:10.881Z,48.90
2022-11-16T13:10:20.973Z,48.80
2022-11-16T13:13:49.692Z,48.80
2022-11-16T13:16:17.837Z,48.70
2022-11-16T13:19:05.848Z,48.50
2022-11-16T13:22:03.670Z,48.80
2022-11-16T13:25:08.837Z,48.40
2022-11-16T13:28:10.894Z,48.30
2022-11-16T13:31:12.844Z,48.20
2022-11-16T13:34:01.837Z,48.20
2022-11-16T13:36:49.924Z,48.00
2022-11-16T13:40:08.832Z,48.00
2022-11-16T13:43:10.861Z,48.00
2022-11-16T13:46:06.831Z,48.00
2022-11-16T13:48:53.848Z,47.90
2022-11-16T13:51:40.856Z,47.80
2022-11-16T13:54:46.090Z,48.00
2022-11-16T13:57:33.842Z,48.00
2022-11-16T14:00:22.247Z,48.10
2022-11-16T14:03:28.862Z,48.20
2022-11-16T14:06:30.832Z,48.10
2022-11-16T14:09:50.301Z,48.20
2022-11-16T14:12:59.876Z,48.10
2022-11-16T14:15:40.909Z,48.20
2022-11-16T14:18:27.844Z,48.10
2022-11-16T14:21:26.758Z,48.10
2022-11-16T14:24:27.836Z,47.90
2022-11-16T14:27:30.658Z,47.80
2022-11-16T14:30:29.835Z,47.80
2022-11-16T14:33:16.841Z,47.80
2022-11-16T14:36:04.910Z,47.80
2022-11-16T14:38:47.857Z,47.70
2022-11-16T14:41:29.140Z,47.40
2022-11-16T14:44:16.835Z,47.40
2022-11-16T14:47:03.930Z,47.30
2022-11-16T14:49:44.852Z,47.10
2022-11-16T14:52:38.892Z,47.10
2022-11-16T14:55:28.861Z,47.00
2022-11-16T14:58:13.640Z,47.00
2022-11-16T15:01:11.855Z,46.90
2022-11-16T15:04:15.001Z,46.90
2022-11-16T15:07:18.930Z,46.90
2022-11-16T15:10:00.450Z,47.00
2022-11-16T15:12:57.853Z,46.90
2022-11-16T15:15:38.477Z,46.90
2022-11-16T15:18:31.851Z,47.00
2022-11-16T15:21:28.848Z,46.90
2022-11-16T15:24:29.330Z,46.90
2022-11-16T15:27:18.881Z,47.00
2022-11-16T15:30:19.848Z,47.10
2022-11-16T15:33:00.937Z,47.10
2022-11-16T15:35:47.867Z,47.10
2022-11-16T15:38:37.539Z,47.20
2022-11-16T15:41:24.855Z,47.10
2022-11-16T15:44:15.111Z,47.20
2022-11-16T15:47:00.856Z,47.20
2022-11-16T15:49:53.072Z,47.30
2022-11-16T15:52:52.856Z,47.30
2022-11-16T15:55:36.805Z,47.30
2022-11-16T15:58:32.991Z,47.30
2022-11-16T16:01:15.173Z,47.40
2022-11-16T16:04:08.848Z,47.40
2022-11-16T16:06:58.775Z,47.40
2022-11-16T16:09:48.892Z,48.50
2022-11-16T16:12:30.036Z,47.60
2022-11-16T16:15:39.861Z,47.70
2022-11-16T16:18:46.870Z,47.60
2022-11-16T16:21:26.979Z,47.60
2022-11-16T16:24:15.858Z,47.70
2022-11-16T16:27:02.860Z,47.70
2022-11-16T16:29:57.857Z,47.80
2022-11-16T16:32:44.856Z,47.80
2022-11-16T16:35:30.957Z,47.90
2022-11-16T16:38:19.875Z,47.90
2022-11-16T16:41:05.929Z,48.00
2022-11-16T16:43:59.849Z,48.00
2022-11-16T16:46:46.981Z,48.00
2022-11-16T16:49:26.868Z,48.10
2022-11-16T16:52:13.967Z,48.10
2022-11-16T16:54:53.864Z,48.10
2022-11-16T16:57:41.014Z,48.20
2022-11-16T17:00:21.884Z,48.10
2022-11-16T17:03:08.888Z,48.10
2022-11-16T17:05:48.908Z,48.20
2022-11-16T17:08:36.315Z,48.20
2022-11-16T17:11:23.891Z,48.20
2022-11-16T17:14:05.613Z,48.30
2022-11-16T17:16:51.881Z,48.20
2022-11-16T17:19:32.348Z,48.20
2022-11-16T17:22:19.800Z,48.30
2022-11-16T17:25:07.028Z,48.30
2022-11-16T17:27:47.246Z,48.30
2022-11-16T17:30:33.873Z,48.30
2022-11-16T17:33:13.913Z,48.30
2022-11-16T17:36:03.862Z,48.40
2022-11-16T17:38:45.182Z,48.40
2022-11-16T17:41:31.858Z,48.40
2022-11-16T17:44:21.846Z,48.40
2022-11-16T17:47:08.926Z,48.40
2022-11-16T17:49:55.885Z,48.50
2022-11-16T17:52:42.953Z,48.40
2022-11-16T17:55:22.852Z,48.40
2022-11-16T17:58:09.868Z,48.50
2022-11-16T18:00:49.943Z,48.40
2022-11-16T18:03:37.219Z,48.50
2022-11-16T18:06:30.115Z,48.50
2022-11-16T18:09:17.878Z,48.50
2022-11-16T18:11:58.476Z,48.40
2022-11-16T18:15:06.472Z,48.40
2022-11-16T18:17:51.859Z,48.50
2022-11-16T18:20:41.883Z,48.40
2022-11-16T18:23:21.915Z,48.50
2022-11-16T18:26:13.877Z,48.50
2022-11-16T18:28:54.981Z,48.50
2022-11-16T18:31:41.884Z,48.50
2022-11-16T18:34:28.856Z,48.50
2022-11-16T18:37:15.896Z,48.50
2022-11-16T18:39:55.968Z,48.50
2022-11-16T18:42:49.881Z,48.60
2022-11-16T18:45:37.012Z,48.70
2022-11-16T18:48:17.023Z,48.60
2022-11-16T18:50:59.103Z,48.70
2022-11-16T18:53:45.901Z,48.70
2022-11-16T18:56:34.948Z,48.70
2022-11-16T18:59:14.972Z,48.70
2022-11-16T19:01:55.355Z,48.70
2022-11-16T19:04:41.868Z,48.80
2022-11-16T19:07:28.933Z,48.70
2022-11-16T19:10:09.004Z,48.80
2022-11-16T19:12:55.864Z,48.80
2022-11-16T19:15:36.182Z,49.00
2022-11-16T19:18:22.888Z,49.00
2022-11-16T19:21:19.056Z,49.10
2022-11-16T19:24:05.878Z,49.10
2022-11-16T19:26:45.912Z,49.10
2022-11-16T19:29:32.868Z,49.20
2022-11-16T19:32:12.945Z,49.30
2022-11-16T19:34:59.882Z,49.30
2022-11-16T19:37:39.941Z,49.30
2022-11-16T19:40:26.897Z,49.40
2022-11-16T19:43:06.920Z,49.50
2022-11-16T19:45:53.864Z,49.60
2022-11-16T19:48:33.970Z,49.60
2022-11-16T19:51:31.860Z,49.60
2022-11-16T19:54:14.400Z,49.60
2022-11-16T19:57:00.868Z,49.70
2022-11-16T19:59:40.997Z,49.70
2022-11-16T20:02:27.884Z,49.80
2022-11-16T20:05:07.928Z,49.80
2022-11-16T20:07:55.880Z,49.90
2022-11-16T20:10:43.860Z,49.90
2022-11-16T20:13:30.990Z,50.00
2022-11-16T20:16:11.900Z,50.00
2022-11-16T20:19:06.887Z,50.00
2022-11-16T20:21:47.433Z,50.00
2022-11-16T20:24:33.896Z,50.10
2022-11-16T20:27:14.025Z,50.20
2022-11-16T20:30:04.981Z,50.20
2022-11-16T20:32:54.893Z,50.40
2022-11-16T20:35:34.983Z,51.80
2022-11-16T20:38:21.905Z,50.90
2022-11-16T20:41:08.908Z,51.00
2022-11-16T20:44:16.796Z,50.90
2022-11-16T20:46:57.395Z,52.00
2022-11-16T20:49:43.880Z,51.10
2022-11-16T20:52:24.027Z,51.30
2022-11-16T20:55:10.881Z,51.20
2022-11-16T20:57:57.863Z,51.20
2022-11-16T21:00:37.969Z,51.30
2022-11-16T21:03:24.910Z,51.30
2022-11-16T21:06:08.405Z,51.40
2022-11-16T21:08:54.897Z,51.30
2022-11-16T21:12:02.921Z,51.20
2022-11-16T21:14:43.343Z,51.20
2022-11-16T21:17:29.975Z,51.10
2022-11-16T21:20:27.460Z,51.00
2022-11-16T21:23:08.922Z,51.00
2022-11-16T21:25:56.115Z,51.00
2022-11-16T21:28:37.090Z,51.00
2022-11-16T21:31:25.399Z,51.00
2022-11-16T21:34:13.927Z,50.90
2022-11-16T21:37:00.857Z,50.90
2022-11-16T21:39:40.980Z,50.60
2022-11-16T21:42:27.871Z,50.70
2022-11-16T21:45:21.929Z,50.70
2022-11-16T21:48:08.881Z,50.90
2022-11-16T21:50:48.965Z,51.10
2022-11-16T21:53:36.220Z,51.20
2022-11-16T21:56:20.044Z,51.30
2022-11-16T21:59:06.886Z,51.40
2022-11-16T22:02:07.474Z,51.50
2022-11-16T22:05:11.911Z,51.70
2022-11-16T22:07:58.903Z,51.70
2022-11-16T22:10:46.025Z,52.00
2022-11-16T22:13:26.880Z,52.00
2022-11-16T22:16:12.085Z,52.10
2022-11-16T22:18:58.920Z,52.20
2022-11-16T22:21:45.920Z,52.40
2022-11-16T22:24:25.886Z,52.40
2022-11-16T22:27:06.391Z,52.50
2022-11-16T22:29:52.890Z,52.80
2022-11-16T22:32:39.907Z,52.90
2022-11-16T22:35:26.896Z,52.80
2022-11-16T22:38:13.884Z,52.70
2022-11-16T22:40:57.960Z,52.80
2022-11-16T22:43:45.116Z,52.90
2022-11-16T22:46:24.990Z,53.20
2022-11-16T22:49:12.114Z,53.40
2022-11-16T22:51:58.876Z,53.40
2022-11-16T22:54:45.873Z,53.50
2022-11-16T22:57:26.058Z,53.60
2022-11-16T23:00:13.913Z,53.80
2022-11-16T23:02:54.032Z,53.90
2022-11-16T23:05:41.213Z,54.00
2022-11-16T23:08:24.843Z,54.20
2022-11-16T23:11:40.897Z,54.20
2022-11-16T23:14:41.588Z,54.40
2022-11-16T23:17:27.884Z,54.60
2022-11-16T23:20:32.873Z,54.90
2022-11-16T23:23:45.890Z,54.90
2022-11-16T23:27:00.874Z,55.20
2022-11-16T23:29:42.031Z,55.30
2022-11-16T23:32:28.881Z,55.60
2022-11-16T23:35:16.931Z,55.70
2022-11-16T23:38:09.881Z,55.90
2022-11-16T23:40:59.949Z,55.90
2022-11-16T23:44:04.978Z,56.20
2022-11-16T23:46:51.885Z,56.30
2022-11-16T23:49:32.020Z,56.60
2022-11-16T23:52:18.899Z,56.40
2022-11-16T23:55:05.948Z,57.60
2022-11-16T23:57:46.363Z,56.60
